Big Springs, West Virginia
Current Conditions -  °F | °C
As of 8:53 AM on Tuesday 27 Jan 2015 (Local Time) from KPKB Reporting Station
Overcast Overcast  
Wind Chill: 12°   Ceiling: 2900
Heat Index: 20°   Visibility: 7mi
Dew Point: 13°   Wind: 6mph
Humidity: 74%   Direction: 320°NW
Pressure: 30.01"   Gusts: NA
Location:  38.99°N, 81.07°W
Report Text: KPKB 271353Z 32005KT 7SM BKN029 OVC080 M07/M11 A3001 RMK AO2 SLP172 T10671106
Loading
Personal Weather Stations






























Interactive Weather Map New forecast layout! Learn more

10-Day Weather Forecast

Advertisements
Track Severe Weather on mobile